Flight Track Log - Related Links

Times and Time Zones

All times are in EDT time to prevent confusion due to time zone crossing. See the HPN8 flight status page for this flight to view local times or setup timezone preferences in your user account.

Time Position Orientation Groundspeed Altitude Reporting Facility
EDT Latitude Longitude Course Direction KTS MPH feet Rate Location/Type
Thu 08:22:57 PM 43.9367 -78.9489 157° South 368 423 1,600  Level Cleveland Center
Thu 08:23:57 PM 43.9375 -79.0239 271° West 279 321 3,600 1,700 Climbing Cleveland Center
Thu 08:24:57 PM 43.8833 -79.0167 175° South 150 173 5,000 1,150 Climbing Cleveland Center
Thu 08:25:57 PM 43.8164 -79.0069 174° South 204 235 5,900 1,642 Climbing Cleveland Center
Thu 08:26:00 PM 43.4123 -78.5901 157° South  Level FlightAware Approximate
Thu 08:26:43 PM 43.7500 -78.9667 156° South 240 276 7,900  Level Toronto Center
Thu 08:27:00 PM 43.3281 -78.5410 157° South  Level FlightAware Approximate
Thu 08:27:43 PM 43.6833 -78.9667 180° South 230 265 9,000  Level Toronto Center
Thu 08:28:00 PM 43.2438 -78.4921 157° South  Level FlightAware Approximate
Thu 08:28:43 PM 43.6167 -78.9500 170° South 250 288 10,800  Level Toronto Center
Thu 08:29:43 PM 43.5833 -78.9000 133° Southeast 210 242 12,700 1,650 Climbing Toronto Center
Thu 08:30:43 PM 43.5500 -78.8333 125° Southeast 210 242 14,100 1,400 Climbing Toronto Center
Thu 08:31:43 PM 43.5500 -78.7333 90° East 210 242 15,500 1,350 Climbing Toronto Center
Thu 08:32:43 PM 43.5333 -78.6667 109° East 220 253 16,800 1,250 Climbing Toronto Center
Thu 08:33:43 PM 43.5167 -78.5833 105° East 220 253 18,000 1,200 Climbing Toronto Center
Thu 08:34:43 PM 43.4833 -78.4833 115° Southeast 230 265 19,200 1,100 Climbing Toronto Center
Thu 08:35:43 PM 43.4833 -78.4000 90° East 230 265 20,200 940 Climbing Toronto Center
Thu 08:36:57 PM 43.4842 -78.3117 89° East 234 269 21,300 896 Climbing Cleveland Center
Thu 08:37:57 PM 43.4717 -78.2147 100° East 241 277 22,200 1,000 Climbing Cleveland Center
Thu 08:38:57 PM 43.4572 -78.1208 102° East 246 283 23,300 1,000 Climbing Cleveland Center
Thu 08:39:57 PM 43.4428 -78.0272 102° East 246 283 24,200 1,000 Climbing Cleveland Center
Thu 08:40:57 PM 43.4303 -77.9306 100° East 252 290 25,300 743 Climbing Cleveland Center
Thu 08:43:00 PM 43.4178 -77.7855 97° East  Level FlightAware Approximate
Thu 08:43:43 PM 43.3833 -77.6167 97° East 280 322 27,000  Level Toronto Center
Thu 08:44:57 PM 43.3653 -77.5019 102° East 297 342 27,000 45 Level Cleveland Center
Thu 08:45:57 PM 43.3475 -77.3772 101° East 318 366 27,100 500 Climbing Cleveland Center
Thu 08:46:57 PM 43.3297 -77.2611 102° East 323 372 28,000 913 Climbing Cleveland Center
Thu 08:49:01 PM 43.2936 -77.0364 102° East 305 351 29,900 867 Climbing Boston Center
Thu 08:49:43 PM 43.2667 -76.9333 110° East 280 322 30,400 765 Climbing Toronto Center
Thu 08:50:43 PM 43.2667 -76.8167 90° East 280 322 31,200 700 Climbing Toronto Center
Thu 08:51:43 PM 43.2500 -76.7333 105° East 280 322 31,800 550 Climbing Toronto Center
Thu 08:52:43 PM 43.2167 -76.6167 111° Southeast 280 322 32,300 550 Climbing Toronto Center
Thu 08:53:43 PM 43.2000 -76.5167 103° East 280 322 32,900 350 Climbing Toronto Center
Thu 08:54:43 PM 43.1833 -76.4167 103° East 290 334 33,000 44 Climbing Toronto Center
Thu 08:56:00 PM 43.1772 -76.2928 94° East 293 337 33,000  Level Boston Center
Thu 08:57:00 PM 43.1583 -76.1747 102° East 304 350 33,000  Level Boston Center
Thu 08:58:00 PM 43.1394 -76.0514 102° East 314 361 33,000  Level Boston Center
Thu 08:59:00 PM 43.1200 -75.9392 103° East 329 379 33,000  Level Boston Center
Thu 09:00:00 PM 43.1008 -75.8128 102° East 329 379 33,000  Level Boston Center
Thu 09:01:00 PM 43.0794 -75.6894 103° East 334 384 33,000  Level Boston Center
Thu 09:02:00 PM 43.0578 -75.5633 103° East 339 390 33,000 -99 Level Boston Center
Thu 09:03:01 PM 43.0342 -75.4342 104° East 339 390 32,800 -773 Descending Boston Center
Thu 09:04:12 PM 43.0106 -75.2967 103° East 350 403 31,300 -1,374 Descending Boston Center
Thu 09:05:12 PM 42.9817 -75.1222 103° East 377 434 29,800 -1,200 Descending Boston Center
Thu 09:06:12 PM 42.9558 -74.9764 104° East 388 447 28,900 -446 Descending Boston Center
Thu 09:07:13 PM 42.9336 -74.8394 102° East 381 438 28,900 50 Level Boston Center
Thu 09:08:12 PM 42.9094 -74.7050 104° East 370 426 29,000 50 Climbing Boston Center
Thu 09:09:13 PM 42.8847 -74.5711 104° East 364 419 29,000  Level Boston Center
Thu 09:10:12 PM 42.8622 -74.4428 103° East 357 411 29,000  Level Boston Center
Thu 09:11:13 PM 42.8372 -74.3117 105° East 357 411 29,000  Level Boston Center
Thu 09:12:12 PM 42.8164 -74.1836 102° East 352 405 29,000  Level Boston Center
Thu 09:13:12 PM 42.7889 -74.0611 107° East 352 405 29,000  Level Boston Center
Thu 09:14:13 PM 42.7700 -73.9306 101° East 347 399 29,000 -500 Level Boston Center
Thu 09:15:12 PM 42.7403 -73.8000 107° East 347 399 28,000 -1,200 Descending Boston Center
Thu 09:16:13 PM 42.7294 -73.6583 96° East 357 411 26,600 -1,500 Descending Boston Center
Thu 09:17:12 PM 42.7142 -73.5083 98° East 382 440 25,000 -1,311 Descending Boston Center
Thu 09:18:12 PM 42.6989 -73.3553 98° East 397 457 24,000 -500 Descending Boston Center
Thu 09:19:12 PM 42.6853 -73.2167 98° East 391 450 24,000  Level Boston Center
Thu 09:20:13 PM 42.6694 -73.0867 99° East 365 420 24,000  Level Boston Center
Thu 09:21:12 PM 42.6514 -72.9314 99° East 366 421 24,000 -50 Level Boston Center
Thu 09:22:12 PM 42.6375 -72.8014 98° East 361 415 23,900 -850 Descending Boston Center
Thu 09:23:12 PM 42.6147 -72.7025 107° East 349 402 22,300 -1,800 Descending Boston Center
Thu 09:24:12 PM 42.5858 -72.5922 110° East 327 376 20,300 -2,000 Descending Boston Center
Thu 09:25:12 PM 42.5567 -72.4625 107° East 303 349 18,300 -2,132 Descending Boston Center
Thu 09:26:13 PM 42.5503 -72.3386 94° East 310 357 16,000 -2,300 Descending Boston Center
Thu 09:27:12 PM 42.5397 -72.2147 97° East 329 379 13,700 -2,100 Descending Boston Center
Thu 09:28:13 PM 42.5353 -72.1047 93° East 329 379 11,800 -2,132 Descending Boston Center
Thu 09:29:13 PM 42.5267 -71.9808 95° East 314 361 9,400 -1,950 Descending Boston Center
Thu 09:30:13 PM 42.5219 -71.8908 94° East 283 326 7,900 -1,750 Descending Boston Center
Thu 09:31:13 PM 42.5153 -71.7781 95° East 272 313 5,900 -1,866 Descending Boston Center
Thu 09:32:12 PM 42.5083 -71.6939 96° East 260 299 4,200 -1,008 Descending Boston Center
Thu 09:33:12 PM 42.5017 -71.6094 96° East 219 252 3,900 -500 Descending Boston Center
Thu 09:34:12 PM 42.4947 -71.5389 98° East 192 221 3,200 -950 Descending Boston Center
Thu 09:35:12 PM 42.4881 -71.4689 97° East 192 221 2,000 -720 Descending Boston Center
Thu 09:35:52 PM 42.4833 -71.4333 100° East 160 184 2,000 -319 Level KA90
Thu 09:36:46 PM 42.4833 -71.3833 90° East 96 110 1,500 -550 Descending KA90
Thu 09:37:52 PM 42.4833 -71.3500 90° East 99 114 900 1,311 Descending KA90
Thu 09:40:12 PM 42.4672 -71.2719 106° East 97 112 6,000 1,522 Climbing Boston Center
Thu 09:41:13 PM 42.4608 -71.2383 104° East 97 112 6,000  Level Boston Center
Thu 09:42:13 PM 42.4561 -71.2019 100° East 97 112 6,000  Level Boston Center
Thu 09:43:13 PM 42.4517 -71.1739 102° East 97 112 6,000  Level Boston Center
Thu 09:45:00 PM 42.4667 -71.2833 281° West  Level FlightAware Approximate
Thu 09:52:00 PM 42.4699 -71.2890 281° West  Level Estimated
Thu 09:53:00 PM 42.4667 -71.2833 281° West  Level FlightAware Approximate
Thu 09:54:00 PM 42.4699 -71.2890 281° West  Level Estimated
Thu 09:55:00 PM 42.4667 -71.2833 281° West  Level FlightAware Approximate

Login

Don't have an account? Register now (free) for customized features, flight alerts, and more!